Time;durP1;ratioP1;P1;durP2;ratioP2;P2;SDS_P1;SDS_P2;PMS_P1;PMS_P2;Temp;Humidity;BMP_temperature;BMP_pressure;BME280_temperature;BME280_humidity;BME280_pressure;Samples;Min_cycle;Max_cycle;Signal;HPM_P1;HPM_P2
2021/12/29 00:03:35;;;;;;;49.95;20.97;;;;;;;-0.91;100.00;97897.31;4322353;80;44491;-81
2021/12/29 00:09:39;;;;;;;49.27;20.48;;;;;;;-1.15;100.00;97904.03;4336839;80;43750;-82
2021/12/29 00:15:41;;;;;;;34.80;15.50;;;;;;;-1.03;100.00;97889.05;4332386;80;28493;-79
2021/12/29 00:21:42;;;;;;;47.88;22.13;;;;;;;-1.11;100.00;97892.62;4320874;80;44520;-80
2021/12/29 00:27:44;;;;;;;45.33;20.17;;;;;;;-0.76;100.00;97905.20;4298612;80;43790;-80
2021/12/29 00:40:27;;;;;;;44.45;20.80;;;;;;;-1.02;100.00;97914.42;4350096;80;43778;-81
2021/12/29 00:46:39;;;;;;;49.73;20.92;;;;;;;-1.10;100.00;97915.36;4326348;80;44130;-80
2021/12/29 00:52:44;;;;;;;53.65;22.48;;;;;;;-1.08;100.00;97901.47;4321599;80;44101;-80
2021/12/29 00:58:45;;;;;;;48.60;22.43;;;;;;;-1.03;100.00;97917.59;4336029;80;28532;-80
2021/12/29 01:04:50;;;;;;;48.10;20.75;;;;;;;-0.92;100.00;97900.96;4326417;80;43744;-80
2021/12/29 01:10:51;;;;;;;45.43;21.15;;;;;;;-1.02;100.00;97896.79;4312752;80;43721;-80
2021/12/29 01:16:53;;;;;;;49.18;20.68;;;;;;;-1.03;100.00;97891.69;4335357;80;44133;-81
2021/12/29 01:22:57;;;;;;;46.60;20.70;;;;;;;-1.00;100.00;97890.82;4343797;80;43753;-81
2021/12/29 01:28:58;;;;;;;45.00;20.17;;;;;;;-1.08;100.00;97879.05;4327199;80;44185;-81
2021/12/29 01:35:03;;;;;;;48.98;21.05;;;;;;;-1.08;100.00;97883.00;4332384;80;44472;-82
2021/12/29 01:41:05;;;;;;;47.15;20.68;;;;;;;-1.03;100.00;97889.87;4325153;80;43787;-81
2021/12/29 01:47:06;;;;;;;48.87;20.68;;;;;;;-1.21;100.00;97888.92;4325405;80;43805;-80
2021/12/29 01:53:09;;;;;;;46.02;20.70;;;;;;;-1.39;100.00;97889.30;4344403;80;43753;-80
2021/12/29 01:59:14;;;;;;;47.93;20.68;;;;;;;-1.53;100.00;97896.21;4334693;80;43798;-81
2021/12/29 02:05:16;;;;;;;47.50;20.95;;;;;;;-1.45;100.00;97900.08;4329001;80;43717;-80
2021/12/29 02:11:17;;;;;;;44.40;19.25;;;;;;;-1.69;100.00;97892.77;4327820;80;43757;-80
2021/12/29 02:17:19;;;;;;;47.98;21.70;;;;;;;-1.79;100.00;97899.28;4312567;80;43786;-80
2021/12/29 02:23:33;;;;;;;48.45;20.77;;;;;;;-1.86;100.00;97891.27;4323423;80;43744;-80
2021/12/29 02:29:35;;;;;;;42.20;19.15;;;;;;;-2.07;100.00;97892.78;4344802;80;43781;-79
2021/12/29 02:35:36;;;;;;;45.12;19.65;;;;;;;-1.88;100.00;97898.03;4323334;80;43800;-80
2021/12/29 02:41:43;;;;;;;45.75;19.10;;;;;;;-1.75;100.00;97893.47;4326147;80;43773;-80
2021/12/29 02:47:46;;;;;;;46.40;19.75;;;;;;;-1.57;100.00;97893.62;4333946;80;43772;-80
2021/12/29 02:53:48;;;;;;;47.40;19.35;;;;;;;-1.42;100.00;97892.31;4335216;80;43745;-80
2021/12/29 02:59:50;;;;;;;43.75;19.20;;;;;;;-1.31;100.00;97889.70;4322168;80;43762;-81
2021/12/29 03:05:51;;;;;;;43.63;20.45;;;;;;;-1.22;100.00;97903.63;4295601;81;43746;-81
2021/12/29 03:11:53;;;;;;;43.48;19.12;;;;;;;-1.20;100.00;97900.31;4329446;80;43747;-81
2021/12/29 03:17:54;;;;;;;43.25;19.27;;;;;;;-1.05;100.00;97891.86;4296197;81;43820;-80
2021/12/29 03:23:56;;;;;;;42.98;20.32;;;;;;;-0.88;100.00;97884.58;4312454;80;43707;-83
2021/12/29 03:29:57;;;;;;;44.38;19.52;;;;;;;-0.78;100.00;97884.75;4306750;80;43745;-82
2021/12/29 03:36:02;;;;;;;43.25;19.98;;;;;;;-0.45;100.00;97894.87;4326040;80;43757;-81
2021/12/29 03:42:04;;;;;;;;;;;;;;;-0.53;100.00;97896.30;4316141;80;28559;-82
2021/12/29 03:48:08;;;;;;;37.05;18.02;;;;;;;-0.51;100.00;97894.28;4319108;80;44434;-83
2021/12/29 03:54:09;;;;;;;39.33;17.50;;;;;;;-0.52;100.00;97899.25;4327087;80;44439;-81
2021/12/29 04:00:15;;;;;;;41.40;17.27;;;;;;;-0.68;100.00;97910.34;4333281;80;44501;-81
2021/12/29 04:06:18;;;;;;;38.40;17.27;;;;;;;-0.52;100.00;97908.01;4335065;80;44443;-82
2021/12/29 04:12:19;;;;;;;36.10;15.88;;;;;;;-0.67;100.00;97915.97;4319409;80;44498;-81
2021/12/29 04:18:27;;;;;;;38.20;17.17;;;;;;;-0.82;100.00;97912.05;4335903;80;44455;-82
2021/12/29 04:24:28;;;;;;;36.48;16.87;;;;;;;-0.61;100.00;97917.05;4331683;80;44482;-81
2021/12/29 04:30:31;;;;;;;43.70;18.10;;;;;;;-0.57;100.00;97924.41;4343559;80;42908;-82
2021/12/29 04:36:32;;;;;;;39.70;19.05;;;;;;;-0.72;100.00;97937.64;4341738;80;44443;-81
2021/12/29 04:42:34;;;;;;;44.77;18.20;;;;;;;-0.34;100.00;97932.66;4331081;80;43757;-82
2021/12/29 04:48:38;;;;;;;43.40;19.32;;;;;;;-0.79;100.00;97947.30;4329865;80;43711;-82
2021/12/29 04:54:39;;;;;;;45.95;19.32;;;;;;;-0.38;100.00;97950.39;4336432;80;43978;-82
2021/12/29 05:00:40;;;;;;;43.13;18.52;;;;;;;-0.42;100.00;97967.11;4342447;80;43675;-82
2021/12/29 05:13:01;;;;;;;49.65;20.65;;;;;;;-0.25;100.00;97940.47;4347742;80;44909;-81
2021/12/29 05:19:03;;;;;;;43.92;19.37;;;;;;;-0.22;100.00;97943.53;4334874;80;43722;-82
2021/12/29 05:25:05;;;;;;;46.50;20.60;;;;;;;-0.41;100.00;97944.17;4317020;80;43774;-81
2021/12/29 05:31:06;;;;;;;43.42;18.98;;;;;;;-0.67;100.00;97951.61;4314271;80;43750;-80
2021/12/29 05:37:09;;;;;;;43.00;19.00;;;;;;;-0.53;100.00;97960.99;4349663;80;43695;-82
2021/12/29 05:43:11;;;;;;;45.40;18.35;;;;;;;-0.32;100.00;97969.44;4322491;80;43743;-80
2021/12/29 05:49:13;;;;;;;40.00;18.50;;;;;;;-0.22;100.00;97968.63;4314142;82;44421;-80
2021/12/29 05:55:15;;;;;;;40.63;18.50;;;;;;;-0.19;100.00;97976.69;4314820;82;44432;-82
2021/12/29 06:01:16;;;;;;;45.08;19.15;;;;;;;-0.29;100.00;97974.37;4331042;82;43725;-81
2021/12/29 06:07:17;;;;;;;41.68;19.82;;;;;;;-0.35;100.00;97978.58;4357685;81;43597;-81
2021/12/29 06:13:19;;;;;;;50.43;21.70;;;;;;;-0.21;100.00;97987.46;4357492;81;44415;-81
2021/12/29 06:19:21;;;;;;;46.68;21.65;;;;;;;-0.05;100.00;97994.33;4357517;82;43776;-80
2021/12/29 06:25:23;;;;;;;44.33;20.15;;;;;;;-0.01;100.00;98001.35;4357119;81;43772;-80
2021/12/29 06:31:25;;;;;;;48.45;20.45;;;;;;;-0.06;100.00;98012.48;4356957;82;44107;-83
2021/12/29 06:37:26;;;;;;;49.88;21.27;;;;;;;-0.13;100.00;98021.36;4365545;80;44411;-82
2021/12/29 06:43:28;;;;;;;42.33;19.67;;;;;;;-0.15;100.00;98027.65;4385718;80;43745;-82
2021/12/29 06:49:29;;;;;;;44.80;19.98;;;;;;;0.03;100.00;98033.02;4386284;81;43709;-81
2021/12/29 06:55:31;;;;;;;46.33;19.98;;;;;;;-0.24;100.00;98050.42;4386033;80;43744;-81
2021/12/29 07:01:32;;;;;;;46.80;19.50;;;;;;;-0.45;100.00;98054.12;4385920;80;43753;-81
2021/12/29 07:07:34;;;;;;;49.18;20.80;;;;;;;-0.14;100.00;98058.86;4385577;80;44099;-82
2021/12/29 07:13:35;;;;;;;45.17;20.75;;;;;;;0.01;100.00;98056.19;4385904;80;43740;-81
2021/12/29 07:19:37;;;;;;;52.38;21.15;;;;;;;-0.20;100.00;98065.72;4385414;80;43756;-83
2021/12/29 07:25:38;;;;;;;46.55;20.32;;;;;;;-0.02;100.00;98061.33;4385869;80;43713;-82
2021/12/29 07:31:39;;;;;;;43.87;19.55;;;;;;;0.46;100.00;98060.47;4375558;81;43741;-82
2021/12/29 07:37:41;;;;;;;43.63;18.60;;;;;;;0.08;100.00;98069.47;4358228;80;43717;-82
2021/12/29 07:43:44;;;;;;;42.40;19.55;;;;;;;-0.02;100.00;98075.88;4264484;81;43819;-82
2021/12/29 07:49:46;;;;;;;46.98;19.80;;;;;;;0.29;100.00;98078.42;4238754;82;43733;-81
2021/12/29 07:55:47;;;;;;;41.90;19.73;;;;;;;0.58;100.00;98085.92;4199272;83;43717;-79
2021/12/29 08:01:49;;;;;;;46.58;20.08;;;;;;;0.62;100.00;98087.97;4221292;83;43800;-79
2021/12/29 08:07:50;;;;;;;41.80;20.27;;;;;;;0.87;100.00;98085.42;4206071;84;43729;-80
2021/12/29 08:13:52;;;;;;;48.25;20.60;;;;;;;0.78;100.00;98089.55;4234821;83;44098;-79
2021/12/29 08:19:54;;;;;;;49.35;19.73;;;;;;;0.88;100.00;98093.18;4316306;80;43801;-77
2021/12/29 08:25:56;;;;;;;41.50;19.15;;;;;;;0.96;100.00;98103.64;4354787;80;42924;-80
2021/12/29 08:31:58;;;;;;;40.98;19.65;;;;;;;0.84;100.00;98097.23;4358979;80;43540;-83
2021/12/29 08:37:59;;;;;;;44.65;19.90;;;;;;;0.99;100.00;98093.67;4334559;80;43780;-77
2021/12/29 08:44:01;;;;;;;42.27;19.77;;;;;;;0.98;100.00;98096.80;4336119;80;43721;-82
2021/12/29 08:50:29;;;;;;;40.33;17.90;;;;;;;1.24;100.00;98098.02;4346604;80;44443;-84
2021/12/29 08:56:36;;;;;;;39.08;19.15;;;;;;;1.40;100.00;98104.84;4292654;82;44479;-82
2021/12/29 09:02:39;;;;;;;43.10;18.85;;;;;;;1.41;100.00;98109.13;4336046;80;43741;-83
2021/12/29 09:08:43;;;;;;;39.10;20.32;;;;;;;1.32;100.00;98108.47;4304558;80;44421;-82
2021/12/29 09:14:45;;;;;;;42.33;20.82;;;;;;;1.39;100.00;98109.30;4296900;82;43769;-82
2021/12/29 09:20:47;;;;;;;43.55;19.92;;;;;;;1.50;100.00;98107.12;4326215;82;43726;-84
2021/12/29 09:26:49;;;;;;;46.48;19.92;;;;;;;1.47;100.00;98110.17;4321513;81;43758;-83
2021/12/29 09:32:50;;;;;;;41.33;19.98;;;;;;;1.72;100.00;98113.16;4330974;82;43790;-81
2021/12/29 09:38:52;;;;;;;41.70;20.12;;;;;;;1.83;100.00;98113.13;4330003;81;43758;-82
2021/12/29 09:44:53;;;;;;;43.33;21.12;;;;;;;1.93;100.00;98118.87;4329399;82;28505;-82
2021/12/29 09:50:55;;;;;;;40.20;20.15;;;;;;;1.92;100.00;98119.86;4329706;82;42887;-82
2021/12/29 09:56:56;;;;;;;45.33;21.05;;;;;;;2.00;100.00;98126.02;4330757;82;28465;-81
2021/12/29 10:03:02;;;;;;;46.30;22.52;;;;;;;2.09;100.00;98122.19;4329982;82;28567;-81
2021/12/29 10:09:13;;;;;;;;;;;;;;;2.05;100.00;98121.76;4336212;81;28539;-83
2021/12/29 10:15:14;;;;;;;42.27;19.75;;;;;;;2.17;100.00;98128.64;4329427;82;43750;-83
2021/12/29 10:21:18;;;;;;;44.10;21.57;;;;;;;2.47;100.00;98128.32;4331367;82;28496;-82
2021/12/29 10:27:22;;;;;;;41.15;21.40;;;;;;;2.57;100.00;98133.22;4329918;82;28514;-82
2021/12/29 10:33:23;;;;;;;44.35;21.90;;;;;;;2.49;100.00;98130.75;4329509;82;43750;-82
2021/12/29 10:39:32;;;;;;;48.83;21.95;;;;;;;2.67;100.00;98127.54;4308605;81;28566;-82
2021/12/29 10:45:38;;;;;;;46.45;22.60;;;;;;;2.58;100.00;98128.75;4330454;82;28470;-83
2021/12/29 10:51:46;;;;;;;;;;;;;;;2.89;100.00;98124.70;4335858;82;28548;-81
2021/12/29 10:58:11;;;;;;;47.13;21.90;;;;;;;2.57;100.00;98127.11;4330159;82;21834;-82
2021/12/29 11:04:15;;;;;;;49.47;24.00;;;;;;;2.86;100.00;98126.41;4330091;82;28518;-81
2021/12/29 11:10:20;;;;;;;50.83;22.73;;;;;;;2.92;100.00;98133.08;4330102;82;28501;-82
2021/12/29 11:16:21;;;;;;;48.17;23.10;;;;;;;2.97;100.00;98117.03;4330096;82;28541;-80
2021/12/29 11:22:29;;;;;;;48.00;23.38;;;;;;;2.89;100.00;98116.20;4330993;81;28494;-82
2021/12/29 11:28:32;;;;;;;53.13;24.52;;;;;;;3.15;100.00;98119.06;4329911;82;28536;-85
2021/12/29 11:34:34;;;;;;;52.15;24.23;;;;;;;3.19;100.00;98111.00;4329866;82;28524;-81
2021/12/29 11:40:41;;;;;;;51.10;24.45;;;;;;;3.31;100.00;98115.99;4330007;82;28552;-82
2021/12/29 11:46:42;;;;;;;51.53;25.12;;;;;;;3.26;100.00;98126.41;4330527;81;28506;-81
2021/12/29 11:53:19;;;;;;;50.20;24.70;;;;;;;3.32;100.00;98133.56;4329748;82;28511;-82
2021/12/29 11:59:26;;;;;;;55.03;24.67;;;;;;;3.57;100.00;98132.90;4330171;82;28544;-83
2021/12/29 12:05:37;;;;;;;52.55;25.00;;;;;;;3.45;100.00;98129.25;4264300;82;28534;-82
2021/12/29 12:11:53;;;;;;;54.30;25.75;;;;;;;3.57;100.00;98122.27;4254950;83;28505;-82
2021/12/29 12:17:55;;;;;;;54.50;25.90;;;;;;;3.84;100.00;98124.86;4171708;85;28509;-82
2021/12/29 12:24:19;;;;;;;59.25;25.92;;;;;;;3.72;100.00;98139.31;4123660;86;28509;-84
2021/12/29 12:30:28;;;;;;;52.08;25.77;;;;;;;3.87;100.00;98140.92;4170669;85;28525;-81
2021/12/29 12:36:33;;;;;;;57.03;25.85;;;;;;;3.89;100.00;98152.16;4135737;85;28489;-85
2021/12/29 12:42:34;;;;;;;52.10;25.27;;;;;;;3.88;100.00;98153.98;4192251;84;28512;-81
2021/12/29 12:48:36;;;;;;;50.75;24.87;;;;;;;4.15;100.00;98160.55;4276445;83;28481;-82
2021/12/29 12:54:54;;;;;;;46.95;23.57;;;;;;;3.95;100.00;98169.92;4282021;83;28521;-81
2021/12/29 13:01:03;;;;;;;51.77;24.92;;;;;;;4.12;100.00;98180.11;4281982;83;28507;-81
2021/12/29 13:07:05;;;;;;;52.38;25.88;;;;;;;4.32;100.00;98187.50;4282560;83;28540;-83
2021/12/29 13:13:14;;;;;;;54.30;25.97;;;;;;;4.39;100.00;98192.78;4370814;81;28482;-83
2021/12/29 13:19:10;;;;;;;52.13;25.80;;;;;;;4.16;100.00;98198.11;4368807;81;28568;-82
2021/12/29 13:25:17;;;;;;;54.90;25.85;;;;;;;4.39;100.00;98210.62;4368417;81;28525;-82
2021/12/29 13:31:21;;;;;;;50.00;25.95;;;;;;;4.42;100.00;98216.84;4368761;81;28494;-82
2021/12/29 13:37:22;;;;;;;55.20;26.60;;;;;;;4.59;100.00;98219.84;4368688;81;28513;-84
2021/12/29 13:43:29;;;;;;;60.00;27.02;;;;;;;4.41;100.00;98229.84;4331838;81;28461;-81
2021/12/29 13:49:30;;;;;;;58.10;29.92;;;;;;;4.40;100.00;98241.00;4297987;81;28491;-84
2021/12/29 13:55:39;;;;;;;56.90;28.45;;;;;;;4.27;100.00;98242.38;4297286;82;28491;-82
2021/12/29 14:01:49;;;;;;;55.98;27.67;;;;;;;4.21;100.00;98245.87;4313963;81;28506;-81
2021/12/29 14:07:51;;;;;;;55.95;27.62;;;;;;;3.99;100.00;98245.63;4320372;80;28478;-81
2021/12/29 14:14:08;;;;;;;52.20;26.90;;;;;;;4.00;100.00;98253.08;4371016;80;28515;-81
2021/12/29 14:20:15;;;;;;;58.05;28.87;;;;;;;3.82;100.00;98262.53;4350433;81;28529;-80
2021/12/29 14:26:16;;;;;;;60.70;29.48;;;;;;;3.47;100.00;98267.55;4343354;82;28515;-82
2021/12/29 14:32:19;;;;;;;55.10;27.48;;;;;;;3.46;100.00;98287.18;4344412;82;28497;-80
2021/12/29 14:38:21;;;;;;;56.35;27.62;;;;;;;3.20;100.00;98289.30;4342789;82;28488;-80
2021/12/29 14:44:22;;;;;;;56.83;27.90;;;;;;;2.86;100.00;98295.84;4328680;81;28529;-78
2021/12/29 14:50:23;;;;;;;59.08;29.15;;;;;;;2.74;100.00;98302.75;4302081;82;28465;-79
2021/12/29 14:56:25;;;;;;;61.92;28.83;;;;;;;2.79;100.00;98308.27;4254002;83;28530;-79
2021/12/29 15:02:28;;;;;;;61.55;28.15;;;;;;;2.91;100.00;98321.27;4206978;83;28475;-81
2021/12/29 15:08:32;;;;;;;55.35;27.77;;;;;;;2.76;100.00;98317.47;4263537;83;28528;-80
2021/12/29 15:14:35;;;;;;;59.67;28.20;;;;;;;2.90;100.00;98331.59;4252105;84;28477;-79
2021/12/29 15:20:50;;;;;;;57.67;28.17;;;;;;;2.92;100.00;98349.98;4251618;83;29170;-79
2021/12/29 15:26:51;;;;;;;58.38;27.62;;;;;;;2.99;100.00;98360.13;4251354;83;28496;-78
2021/12/29 15:32:55;;;;;;;58.38;28.73;;;;;;;3.03;100.00;98361.89;4255307;83;28526;-80
2021/12/29 15:38:56;;;;;;;55.60;27.35;;;;;;;3.05;100.00;98365.96;4283108;81;28477;-80
2021/12/29 15:44:58;;;;;;;64.92;28.90;;;;;;;3.18;100.00;98369.70;4385090;80;43406;-78
2021/12/29 15:51:03;;;;;;;56.00;28.20;;;;;;;3.24;100.00;98388.81;4374324;80;28480;-77
2021/12/29 15:57:07;;;;;;;;;;;;;;;3.36;100.00;98398.37;4316603;82;28475;-83
2021/12/29 16:03:11;;;;;;;57.48;29.82;;;;;;;3.23;100.00;98394.31;4216170;83;43022;-80
2021/12/29 16:09:11;;;;;;;62.62;29.75;;;;;;;3.27;100.00;98400.36;4310433;82;28516;-78
2021/12/29 16:15:16;;;;;;;67.78;32.83;;;;;;;3.35;100.00;98404.70;4310588;82;28543;-78
2021/12/29 16:21:19;;;;;;;76.57;34.73;;;;;;;3.48;100.00;98406.06;4308883;82;28498;-78
2021/12/29 16:27:24;;;;;;;70.83;35.00;;;;;;;3.46;100.00;98409.94;4310567;82;28468;-79
2021/12/29 16:33:29;;;;;;;75.87;36.98;;;;;;;3.53;100.00;98408.12;4333851;81;28525;-78
2021/12/29 16:39:33;;;;;;;72.20;34.38;;;;;;;3.66;100.00;98413.15;4383232;80;28513;-78
2021/12/29 16:45:37;;;;;;;71.33;34.45;;;;;;;3.83;100.00;98418.41;4370714;81;28490;-82
2021/12/29 16:51:38;;;;;;;75.72;36.68;;;;;;;3.61;100.00;98426.55;4368172;80;28525;-78
2021/12/29 16:57:40;;;;;;;80.83;37.73;;;;;;;3.80;100.00;98435.27;4342398;80;28468;-81
2021/12/29 17:03:42;;;;;;;70.22;34.48;;;;;;;3.68;100.00;98445.66;4355969;80;28458;-81
2021/12/29 17:09:44;;;;;;;74.95;37.28;;;;;;;3.61;100.00;98449.14;4331324;80;28563;-81
2021/12/29 17:15:46;;;;;;;78.05;36.85;;;;;;;3.85;100.00;98452.27;4358315;80;28532;-77
2021/12/29 17:21:49;;;;;;;79.95;38.30;;;;;;;4.02;100.00;98462.53;4320347;80;28526;-81
2021/12/29 17:27:50;;;;;;;79.37;39.08;;;;;;;4.04;100.00;98469.79;4335100;80;28559;-83
2021/12/29 17:33:51;;;;;;;95.60;42.62;;;;;;;3.97;100.00;98483.08;4343856;80;28507;-79
2021/12/29 17:39:54;;;;;;;93.40;42.62;;;;;;;4.04;100.00;98491.08;4326605;80;28515;-82
2021/12/29 17:45:57;;;;;;;90.30;42.78;;;;;;;4.04;100.00;98488.41;4311788;80;28482;-81
2021/12/29 17:51:59;;;;;;;86.08;40.78;;;;;;;4.07;100.00;98502.63;4347099;80;28497;-81
2021/12/29 17:58:04;;;;;;;84.83;39.78;;;;;;;4.12;100.00;98500.70;4357820;80;28503;-81
2021/12/29 18:04:07;;;;;;;84.62;39.03;;;;;;;4.10;100.00;98514.19;4333473;80;28485;-81
2021/12/29 18:10:12;;;;;;;90.83;42.15;;;;;;;4.01;100.00;98517.56;4314659;80;28520;-82
2021/12/29 18:16:14;;;;;;;86.63;40.05;;;;;;;3.82;100.00;98529.80;4262602;82;28476;-76
2021/12/29 18:22:18;;;;;;;80.57;39.30;;;;;;;3.78;100.00;98533.05;4200731;84;28499;-84
2021/12/29 18:28:20;;;;;;;81.60;39.70;;;;;;;4.01;100.00;98532.69;4202644;84;28480;-80
2021/12/29 18:34:21;;;;;;;84.72;40.10;;;;;;;3.93;100.00;98536.36;4189708;83;28471;-82
2021/12/29 18:40:23;;;;;;;88.75;41.65;;;;;;;4.06;100.00;98542.23;4362076;80;28528;-85
2021/12/29 18:46:26;;;;;;;84.05;39.88;;;;;;;3.94;100.00;98539.33;4336428;81;28556;-82
2021/12/29 18:52:29;;;;;;;84.70;40.50;;;;;;;3.87;100.00;98541.16;4318616;82;28478;-78
2021/12/29 18:58:32;;;;;;;74.10;36.95;;;;;;;3.75;100.00;98547.55;4328124;80;28585;-79
2021/12/29 19:04:33;;;;;;;74.82;36.48;;;;;;;3.67;100.00;98560.52;4325638;80;28488;-81
2021/12/29 19:10:35;;;;;;;86.32;39.27;;;;;;;3.66;100.00;98565.52;4375801;80;28501;-83
2021/12/29 19:16:38;;;;;;;88.80;41.37;;;;;;;3.60;100.00;98553.02;4307109;80;28434;-81
2021/12/29 19:22:39;;;;;;;88.27;42.43;;;;;;;3.67;100.00;98561.02;4335589;82;28455;-84
2021/12/29 19:28:43;;;;;;;93.42;42.85;;;;;;;3.64;100.00;98563.55;4353066;80;28541;-81
2021/12/29 19:34:47;;;;;;;90.47;43.40;;;;;;;3.66;100.00;98567.35;4316714;80;28472;-82
2021/12/29 19:40:52;;;;;;;94.95;43.48;;;;;;;3.82;100.00;98572.84;4337101;80;28571;-80
2021/12/29 19:46:54;;;;;;;94.70;44.03;;;;;;;3.76;100.00;98581.94;4301455;82;28512;-80
2021/12/29 19:53:01;;;;;;;89.00;41.37;;;;;;;3.71;100.00;98579.56;4343446;80;37279;-82
2021/12/29 19:59:03;;;;;;;101.92;49.38;;;;;;;3.65;100.00;98581.66;4345180;82;28509;-83
2021/12/29 20:05:05;;;;;;;100.80;47.83;;;;;;;3.32;100.00;98587.94;4357247;81;28478;-81
2021/12/29 20:11:07;;;;;;;101.97;47.17;;;;;;;3.62;100.00;98594.83;4349424;80;28554;-84
2021/12/29 20:17:09;;;;;;;111.35;52.35;;;;;;;3.58;100.00;98594.92;4340336;81;28516;-83
2021/12/29 20:23:12;;;;;;;108.25;49.98;;;;;;;3.69;100.00;98609.48;4348626;80;28472;-84
2021/12/29 20:29:14;;;;;;;107.03;51.95;;;;;;;3.59;100.00;98620.49;4331907;80;28469;-83
2021/12/29 20:35:17;;;;;;;109.95;50.15;;;;;;;3.94;100.00;98615.66;4327566;80;28492;-80
2021/12/29 20:41:18;;;;;;;112.05;51.90;;;;;;;3.81;100.00;98627.05;4341502;80;28457;-80
2021/12/29 20:47:20;;;;;;;105.50;49.48;;;;;;;3.57;100.00;98630.50;4356625;80;28568;-82
2021/12/29 20:53:21;;;;;;;99.67;47.78;;;;;;;3.66;100.00;98618.70;4336770;80;28524;-83
2021/12/29 20:59:24;;;;;;;106.85;49.83;;;;;;;3.57;100.00;98613.23;4336552;80;28520;-80
2021/12/29 21:05:25;;;;;;;122.42;56.80;;;;;;;3.56;100.00;98608.93;4316595;80;28870;-81
2021/12/29 21:11:29;;;;;;;130.18;57.75;;;;;;;3.30;100.00;98613.05;4319976;80;28474;-81
2021/12/29 21:17:30;;;;;;;125.30;55.03;;;;;;;2.92;100.00;98612.88;4356290;80;28509;-80
2021/12/29 21:23:32;;;;;;;129.05;58.35;;;;;;;2.83;100.00;98608.22;4346885;82;28470;-81
2021/12/29 21:29:33;;;;;;;128.23;59.77;;;;;;;2.48;100.00;98606.27;4324654;81;28520;-81
2021/12/29 21:35:34;;;;;;;128.60;58.60;;;;;;;2.41;100.00;98611.20;4336286;80;42589;-83
2021/12/29 21:41:36;;;;;;;135.57;64.67;;;;;;;2.50;100.00;98613.53;4346803;82;44443;-78
2021/12/29 21:47:37;;;;;;;151.18;68.95;;;;;;;2.42;100.00;98608.86;4335484;80;43828;-80
2021/12/29 21:53:39;;;;;;;148.70;67.22;;;;;;;2.65;100.00;98615.28;4329704;80;28515;-81
2021/12/29 21:59:40;;;;;;;145.32;68.42;;;;;;;2.39;100.00;98613.20;4331342;80;28521;-81
2021/12/29 22:05:44;;;;;;;139.77;64.97;;;;;;;2.47;100.00;98604.63;4323632;80;44689;-83
2021/12/29 22:11:48;;;;;;;143.50;64.70;;;;;;;2.40;100.00;98617.52;4323598;80;28550;-80
2021/12/29 22:17:52;;;;;;;155.78;71.28;;;;;;;2.32;100.00;98617.11;4331012;80;44245;-82
2021/12/29 22:23:54;;;;;;;159.07;71.37;;;;;;;2.49;100.00;98613.22;4349110;80;28529;-81
2021/12/29 22:29:55;;;;;;;158.22;71.90;;;;;;;2.53;100.00;98619.46;4334348;80;28514;-81
2021/12/29 22:35:57;;;;;;;146.72;68.33;;;;;;;2.70;100.00;98624.02;4334088;80;28468;-81
2021/12/29 22:42:01;;;;;;;151.42;71.65;;;;;;;2.79;100.00;98621.05;4337222;80;28527;-80
2021/12/29 22:48:04;;;;;;;157.20;71.45;;;;;;;2.99;100.00;98632.35;4357080;80;44311;-82
2021/12/29 22:54:06;;;;;;;143.78;68.55;;;;;;;2.90;100.00;98648.91;4343203;80;28459;-81
2021/12/29 23:00:24;;;;;;;146.62;68.52;;;;;;;2.88;100.00;98647.48;4334597;80;28471;-82
2021/12/29 23:06:26;;;;;;;134.07;65.22;;;;;;;2.90;100.00;98652.09;4331987;80;28483;-80
2021/12/29 23:12:28;;;;;;;154.57;74.75;;;;;;;2.87;100.00;98663.91;4332057;80;28509;-82
2021/12/29 23:18:51;;;;;;;151.15;70.92;;;;;;;2.85;100.00;98661.95;4331705;80;28451;-81
2021/12/29 23:24:54;;;;;;;154.27;71.95;;;;;;;3.07;100.00;98664.59;4318317;81;44275;-81
2021/12/29 23:30:55;;;;;;;140.60;66.47;;;;;;;3.06;100.00;98662.95;4328637;80;44645;-82
2021/12/29 23:36:57;;;;;;;141.07;67.00;;;;;;;3.17;100.00;98668.23;4307814;80;28506;-81
2021/12/29 23:42:58;;;;;;;152.50;71.35;;;;;;;3.13;100.00;98665.66;4312564;80;43976;-81
2021/12/29 23:49:00;;;;;;;145.28;68.75;;;;;;;3.28;100.00;98666.90;4309221;80;28543;-80
2021/12/29 23:55:02;;;;;;;147.20;68.65;;;;;;;3.23;100.00;98668.80;4305295;80;28497;-80
